createdAt,value
2023-03-17T00:00:00.341Z,92.48
2023-03-17T00:01:03.411Z,91.73
2023-03-17T00:02:05.116Z,92.41
2023-03-17T00:03:07.250Z,92.73
2023-03-17T00:04:13.210Z,91.87
2023-03-17T00:05:20.925Z,92.78
2023-03-17T00:06:28.538Z,92.93
2023-03-17T00:07:30.427Z,92.30
2023-03-17T00:08:34.065Z,92.55
2023-03-17T00:09:35.669Z,92.20
2023-03-17T00:10:37.694Z,91.86
2023-03-17T00:11:39.238Z,92.14
2023-03-17T00:12:41.344Z,91.35
2023-03-17T00:13:44.677Z,91.83
2023-03-17T00:14:47.052Z,91.50
2023-03-17T00:15:57.025Z,91.97
2023-03-17T00:16:58.682Z,91.90
2023-03-17T00:18:00.282Z,92.24
2023-03-17T00:19:02.195Z,91.88
2023-03-17T00:20:05.865Z,91.87
2023-03-17T00:21:13.191Z,91.87
2023-03-17T00:22:18.832Z,92.07
2023-03-17T00:23:23.058Z,91.90
2023-03-17T00:24:24.645Z,92.31
2023-03-17T00:25:29.092Z,92.19
2023-03-17T00:26:31.083Z,91.65
2023-03-17T00:27:33.100Z,92.12
2023-03-17T00:28:34.783Z,91.77
2023-03-17T00:29:36.450Z,92.26
2023-03-17T00:30:38.788Z,91.32
2023-03-17T00:31:40.509Z,91.38
2023-03-17T00:32:42.443Z,91.90
2023-03-17T00:33:45.559Z,91.61
2023-03-17T00:34:47.246Z,91.37
2023-03-17T00:35:48.814Z,91.04
2023-03-17T00:36:52.057Z,90.53
2023-03-17T00:37:55.943Z,90.71
2023-03-17T00:38:58.433Z,90.49
2023-03-17T00:40:00.610Z,90.49
2023-03-17T00:41:02.189Z,90.71
2023-03-17T00:42:04.455Z,90.76
2023-03-17T00:43:08.329Z,90.85
2023-03-17T00:44:10.155Z,90.46
2023-03-17T00:45:12.364Z,91.09
2023-03-17T00:46:17.300Z,90.93
2023-03-17T00:47:18.854Z,90.65
2023-03-17T00:48:22.158Z,90.62
2023-03-17T00:49:26.297Z,90.06
2023-03-17T00:50:29.467Z,90.36
2023-03-17T00:51:31.196Z,90.43
2023-03-17T00:52:33.385Z,89.63
2023-03-17T00:53:35.422Z,90.15
2023-03-17T00:54:37.016Z,90.54
2023-03-17T00:55:38.647Z,90.14
2023-03-17T00:56:41.649Z,90.24
2023-03-17T00:57:43.788Z,90.13
2023-03-17T00:58:46.618Z,89.98
2023-03-17T00:59:48.362Z,90.07
2023-03-17T01:00:49.920Z,89.61
2023-03-17T01:01:51.714Z,89.78
2023-03-17T01:02:54.910Z,89.77
2023-03-17T01:03:57.389Z,88.97
2023-03-17T01:05:06.207Z,89.30
2023-03-17T01:06:11.638Z,89.58
2023-03-17T01:07:14.181Z,88.78
2023-03-17T01:08:16.848Z,88.88
2023-03-17T01:09:20.396Z,88.92
2023-03-17T01:10:25.788Z,89.11
2023-03-17T01:11:27.386Z,89.30
2023-03-17T01:12:29.452Z,88.62
2023-03-17T01:13:30.974Z,89.14
2023-03-17T01:14:32.522Z,87.85
2023-03-17T01:15:34.727Z,88.53
2023-03-17T01:16:36.330Z,87.97
2023-03-17T01:17:38.136Z,87.63
2023-03-17T01:18:40.001Z,87.31
2023-03-17T01:19:41.634Z,87.72
2023-03-17T01:20:43.809Z,86.96
2023-03-17T01:21:46.487Z,87.26
2023-03-17T01:22:48.834Z,87.28
2023-03-17T01:23:50.402Z,87.68
2023-03-17T01:24:52.080Z,86.21
2023-03-17T01:25:54.393Z,86.71
2023-03-17T01:26:55.906Z,87.25
2023-03-17T01:27:59.351Z,86.88
2023-03-17T01:29:00.901Z,86.63
2023-03-17T01:30:05.954Z,86.75
2023-03-17T01:31:07.513Z,86.59
2023-03-17T01:32:09.125Z,86.62
2023-03-17T01:33:12.984Z,86.64
2023-03-17T01:34:14.642Z,86.76
2023-03-17T01:35:16.360Z,86.51
2023-03-17T01:36:17.930Z,86.33
2023-03-17T01:37:21.371Z,85.57
2023-03-17T01:38:23.358Z,86.45
2023-03-17T01:39:25.549Z,85.93
2023-03-17T01:40:30.650Z,86.35
2023-03-17T01:41:37.605Z,86.29
2023-03-17T01:42:40.084Z,87.21
2023-03-17T01:43:41.734Z,86.72
2023-03-17T01:45:27.894Z,86.55
2023-03-17T01:46:31.731Z,87.72
2023-03-17T01:47:34.115Z,87.37
2023-03-17T01:48:40.564Z,86.87
2023-03-17T01:49:43.191Z,88.01
2023-03-17T01:50:48.370Z,87.28
2023-03-17T01:52:14.310Z,87.86
2023-03-17T01:53:18.043Z,87.77
2023-03-17T01:54:28.865Z,87.73
2023-03-17T01:55:30.508Z,88.07
2023-03-17T01:56:33.020Z,87.74
2023-03-17T01:57:39.795Z,87.43
2023-03-17T01:58:41.916Z,88.40
2023-03-17T01:59:52.306Z,87.99
2023-03-17T02:00:54.436Z,88.07
2023-03-17T02:02:01.484Z,87.85
2023-03-17T02:03:04.317Z,88.16
2023-03-17T02:04:06.528Z,88.96
2023-03-17T02:05:11.512Z,89.13
2023-03-17T02:06:13.132Z,88.83
2023-03-17T02:07:14.827Z,88.50
2023-03-17T02:08:16.701Z,88.51
2023-03-17T02:09:18.654Z,88.25
2023-03-17T02:10:23.026Z,88.94
2023-03-17T02:11:24.882Z,88.92
2023-03-17T02:12:29.022Z,89.30
2023-03-17T02:13:31.930Z,88.62
2023-03-17T02:14:34.172Z,89.42
2023-03-17T02:15:44.457Z,89.29
2023-03-17T02:16:46.114Z,89.77
2023-03-17T02:17:48.580Z,89.87
2023-03-17T02:18:50.116Z,89.06
2023-03-17T02:19:52.284Z,89.34
2023-03-17T02:20:53.756Z,89.32
2023-03-17T02:21:59.620Z,89.01
2023-03-17T02:23:01.913Z,89.49
2023-03-17T02:24:08.017Z,89.08
2023-03-17T02:25:11.216Z,89.15
2023-03-17T02:26:12.880Z,89.29
2023-03-17T02:27:19.274Z,89.96
2023-03-17T02:28:26.058Z,89.93
2023-03-17T02:29:27.758Z,89.68
2023-03-17T02:30:29.830Z,90.10
2023-03-17T02:31:31.772Z,89.92
2023-03-17T02:32:36.194Z,90.19
2023-03-17T02:33:38.061Z,89.33
2023-03-17T02:34:39.945Z,89.60
2023-03-17T02:35:42.324Z,89.73
2023-03-17T02:36:44.200Z,89.71
2023-03-17T02:37:46.993Z,89.94
2023-03-17T02:38:48.790Z,90.00
2023-03-17T02:39:50.364Z,89.57
2023-03-17T02:40:52.575Z,89.76
2023-03-17T02:41:54.287Z,89.87
2023-03-17T02:42:56.497Z,89.69
2023-03-17T02:43:58.075Z,89.76
2023-03-17T02:45:00.224Z,89.24
2023-03-17T02:46:02.384Z,89.29
2023-03-17T02:47:04.614Z,89.32
2023-03-17T02:48:06.225Z,89.35
2023-03-17T02:49:08.368Z,88.40
2023-03-17T02:50:22.487Z,88.47
2023-03-17T02:51:24.079Z,88.40
2023-03-17T02:52:26.072Z,87.67
2023-03-17T02:53:27.691Z,88.27
2023-03-17T02:54:29.222Z,88.81
2023-03-17T02:55:31.763Z,88.80
2023-03-17T02:56:33.750Z,88.53
2023-03-17T02:57:35.431Z,88.77
2023-03-17T02:58:36.956Z,88.29
2023-03-17T02:59:38.484Z,88.46
2023-03-17T03:00:40.778Z,88.87
2023-03-17T03:01:42.397Z,88.52
2023-03-17T03:02:44.048Z,88.06
2023-03-17T03:03:45.965Z,88.54
2023-03-17T03:04:47.808Z,87.83
2023-03-17T03:05:49.384Z,87.69
2023-03-17T03:06:51.144Z,87.86
2023-03-17T03:07:52.826Z,88.90
2023-03-17T03:08:54.422Z,87.85
2023-03-17T03:09:56.007Z,88.56
2023-03-17T03:10:57.602Z,88.51
2023-03-17T03:11:59.194Z,88.50
2023-03-17T03:13:01.695Z,87.78
2023-03-17T03:14:03.587Z,88.25
2023-03-17T03:15:05.694Z,88.45
2023-03-17T03:16:07.817Z,87.83
2023-03-17T03:17:09.702Z,87.28
2023-03-17T03:18:12.410Z,87.57
2023-03-17T03:19:14.082Z,87.80
2023-03-17T03:20:16.306Z,87.77
2023-03-17T03:21:18.636Z,88.07
2023-03-17T03:22:20.172Z,88.82
2023-03-17T03:23:21.732Z,88.30
2023-03-17T03:24:23.265Z,88.46
2023-03-17T03:25:24.815Z,88.15
2023-03-17T03:26:27.294Z,88.32
2023-03-17T03:27:28.848Z,88.42
2023-03-17T03:28:30.804Z,88.00
2023-03-17T03:29:32.462Z,88.13
2023-03-17T03:30:36.222Z,87.66
2023-03-17T03:31:37.807Z,87.67
2023-03-17T03:32:39.359Z,87.13
2023-03-17T03:33:41.685Z,87.01
2023-03-17T03:34:43.252Z,88.04
2023-03-17T03:35:45.775Z,87.69
2023-03-17T03:36:47.377Z,87.97
2023-03-17T03:37:48.909Z,87.50
2023-03-17T03:38:50.958Z,87.95
2023-03-17T03:39:53.013Z,88.71
2023-03-17T03:40:54.752Z,88.10
2023-03-17T03:41:59.148Z,87.92
2023-03-17T03:43:07.467Z,87.79
2023-03-17T03:44:14.534Z,87.77
2023-03-17T03:45:16.313Z,87.97
2023-03-17T03:46:17.951Z,87.51
2023-03-17T03:47:19.646Z,87.23
2023-03-17T03:48:21.822Z,87.37
2023-03-17T03:49:23.484Z,87.45
2023-03-17T03:50:25.104Z,86.90
2023-03-17T03:51:27.083Z,87.01
2023-03-17T03:52:28.634Z,87.29
2023-03-17T03:53:30.577Z,87.64
2023-03-17T03:54:32.120Z,87.33
2023-03-17T03:55:33.883Z,87.33
2023-03-17T03:56:35.652Z,86.53
2023-03-17T03:57:37.264Z,86.63
2023-03-17T03:58:38.790Z,86.94
2023-03-17T03:59:40.369Z,86.02
2023-03-17T04:00:41.916Z,86.06
2023-03-17T04:01:43.424Z,86.17
2023-03-17T04:02:47.643Z,86.92
2023-03-17T04:03:49.150Z,85.81
2023-03-17T04:04:50.791Z,86.28
2023-03-17T04:05:52.620Z,86.72
2023-03-17T04:06:54.161Z,86.53
2023-03-17T04:07:55.676Z,86.69
2023-03-17T04:08:58.446Z,86.47
2023-03-17T04:10:00.190Z,86.50
2023-03-17T04:11:01.729Z,86.84
2023-03-17T04:12:03.745Z,86.67
2023-03-17T04:13:05.321Z,85.92
2023-03-17T04:14:06.927Z,85.66
2023-03-17T04:15:09.840Z,85.98
2023-03-17T04:16:11.748Z,86.30
2023-03-17T04:17:14.752Z,85.85
2023-03-17T04:18:16.911Z,85.94
2023-03-17T04:19:18.572Z,86.31
2023-03-17T04:20:21.088Z,86.42
2023-03-17T04:21:22.578Z,86.49
2023-03-17T04:22:24.306Z,86.56
2023-03-17T04:23:25.947Z,86.06
2023-03-17T04:24:28.001Z,86.14
2023-03-17T04:25:29.583Z,85.87
2023-03-17T04:26:32.157Z,85.85
2023-03-17T04:27:34.287Z,85.76
2023-03-17T04:28:35.850Z,85.10
2023-03-17T04:29:37.525Z,85.34
2023-03-17T04:30:39.194Z,85.75
2023-03-17T04:31:41.473Z,85.31
2023-03-17T04:32:44.071Z,85.26
2023-03-17T04:33:45.654Z,84.52
2023-03-17T04:34:47.227Z,85.32
2023-03-17T04:35:48.804Z,84.75
2023-03-17T04:36:50.493Z,85.39
2023-03-17T04:37:52.128Z,86.01
2023-03-17T04:38:53.699Z,86.04
2023-03-17T04:39:55.968Z,85.86
2023-03-17T04:40:57.514Z,86.09
2023-03-17T04:41:59.105Z,86.23
2023-03-17T04:43:03.321Z,86.18
2023-03-17T04:44:05.569Z,85.89
2023-03-17T04:45:09.810Z,86.94
2023-03-17T04:46:11.811Z,86.85
2023-03-17T04:47:13.411Z,86.94
2023-03-17T04:48:14.988Z,85.96
2023-03-17T04:49:16.839Z,86.39
2023-03-17T04:50:18.436Z,87.10
2023-03-17T04:51:20.246Z,86.80
2023-03-17T04:52:21.783Z,86.36
2023-03-17T04:53:23.334Z,86.77
2023-03-17T04:54:25.226Z,86.53
2023-03-17T04:55:27.639Z,86.64
2023-03-17T04:56:31.627Z,86.58
2023-03-17T04:57:33.544Z,87.04
2023-03-17T04:58:35.231Z,86.43
2023-03-17T04:59:36.796Z,86.11
2023-03-17T05:00:39.054Z,86.32
2023-03-17T05:01:41.071Z,86.15
2023-03-17T05:02:42.642Z,86.21
2023-03-17T05:03:45.399Z,86.06
2023-03-17T05:04:47.834Z,86.39
2023-03-17T05:05:50.699Z,85.61
2023-03-17T05:06:52.452Z,85.52
2023-03-17T05:07:53.964Z,85.44
2023-03-17T05:08:55.569Z,85.68
2023-03-17T05:09:57.913Z,86.62
2023-03-17T05:10:59.486Z,85.97
2023-03-17T05:12:01.090Z,85.40
2023-03-17T05:13:02.840Z,85.07
2023-03-17T05:14:04.417Z,85.07
2023-03-17T05:15:06.557Z,84.77
2023-03-17T05:16:09.233Z,85.15
2023-03-17T05:17:10.967Z,84.72
2023-03-17T05:18:12.646Z,84.23
2023-03-17T05:19:14.546Z,84.25
2023-03-17T05:20:17.130Z,85.34
2023-03-17T05:21:18.681Z,84.75
2023-03-17T05:22:20.641Z,84.43
2023-03-17T05:23:23.056Z,84.63
2023-03-17T05:24:24.876Z,84.04
2023-03-17T05:25:26.593Z,84.39
2023-03-17T05:26:28.443Z,84.31
2023-03-17T05:27:31.403Z,84.32
2023-03-17T05:28:33.022Z,84.03
2023-03-17T05:29:34.580Z,85.03
2023-03-17T05:30:39.020Z,83.73
2023-03-17T05:31:40.572Z,83.62
2023-03-17T05:32:42.202Z,83.58
2023-03-17T05:33:43.785Z,83.96
2023-03-17T05:34:46.360Z,83.51
2023-03-17T05:35:47.939Z,84.11
2023-03-17T05:36:50.471Z,84.33
2023-03-17T05:37:52.602Z,83.52
2023-03-17T05:38:54.303Z,83.39
2023-03-17T05:39:55.974Z,83.97
2023-03-17T05:40:57.955Z,85.04
2023-03-17T05:41:59.474Z,84.40
2023-03-17T05:43:01.721Z,82.90
2023-03-17T05:44:03.344Z,83.69
2023-03-17T05:45:06.022Z,82.99
2023-03-17T05:46:07.640Z,83.76
2023-03-17T05:47:09.327Z,83.18
2023-03-17T05:48:12.397Z,83.70
2023-03-17T05:49:14.024Z,83.92
2023-03-17T05:50:15.908Z,82.82
2023-03-17T05:51:17.617Z,83.03
2023-03-17T05:52:19.423Z,82.32
2023-03-17T05:53:21.083Z,82.76
2023-03-17T05:54:23.130Z,82.87
2023-03-17T05:55:24.730Z,82.03
2023-03-17T05:56:33.322Z,82.54
2023-03-17T05:57:35.468Z,82.67
2023-03-17T05:58:37.051Z,82.18
2023-03-17T05:59:38.668Z,82.25
2023-03-17T06:00:40.857Z,82.66
2023-03-17T06:01:42.467Z,81.50
2023-03-17T06:02:44.086Z,82.89
2023-03-17T06:03:45.833Z,82.59
2023-03-17T06:04:47.631Z,82.71
2023-03-17T06:05:49.262Z,82.51
2023-03-17T06:06:50.850Z,83.05
2023-03-17T06:07:56.257Z,82.64
2023-03-17T06:08:58.166Z,82.55
2023-03-17T06:10:00.471Z,81.79
2023-03-17T06:11:02.650Z,82.59
2023-03-17T06:12:04.898Z,82.41
2023-03-17T06:13:06.433Z,81.33
2023-03-17T06:14:09.238Z,81.27
2023-03-17T06:15:10.960Z,82.13
2023-03-17T06:16:13.101Z,81.86
2023-03-17T06:17:14.773Z,81.35
2023-03-17T06:18:16.422Z,80.38
2023-03-17T06:19:17.994Z,81.87
2023-03-17T06:20:19.806Z,80.71
2023-03-17T06:21:21.919Z,79.44
2023-03-17T06:22:23.481Z,80.35
2023-03-17T06:23:25.077Z,80.94
2023-03-17T06:24:26.692Z,81.50
2023-03-17T06:25:28.347Z,79.96
2023-03-17T06:26:29.973Z,79.89
2023-03-17T06:27:31.616Z,79.77
2023-03-17T06:28:33.321Z,79.68
2023-03-17T06:29:34.840Z,78.50
2023-03-17T06:30:40.409Z,78.07
2023-03-17T06:31:42.303Z,78.05
2023-03-17T06:32:44.183Z,78.62
2023-03-17T06:33:45.763Z,78.96
2023-03-17T06:34:47.510Z,78.89
2023-03-17T06:35:49.157Z,78.90
2023-03-17T06:36:51.018Z,76.84
2023-03-17T06:37:52.542Z,77.75
2023-03-17T06:38:54.134Z,77.36
2023-03-17T06:39:56.893Z,75.66
2023-03-17T06:40:58.473Z,76.19
2023-03-17T06:42:00.033Z,75.79
2023-03-17T06:43:02.067Z,76.10
2023-03-17T06:44:05.417Z,76.11
2023-03-17T06:45:09.325Z,75.63
2023-03-17T06:46:11.157Z,77.28
2023-03-17T06:47:13.514Z,75.11
2023-03-17T06:48:15.059Z,74.60
2023-03-17T06:49:17.132Z,74.10
2023-03-17T06:50:19.009Z,73.97
2023-03-17T06:51:20.699Z,72.35
2023-03-17T06:52:22.465Z,72.44
2023-03-17T06:53:24.076Z,73.70
2023-03-17T06:54:25.929Z,71.84
2023-03-17T06:55:27.516Z,71.77
2023-03-17T06:56:30.453Z,71.53
2023-03-17T06:57:32.499Z,71.90
2023-03-17T06:58:34.091Z,71.85
2023-03-17T06:59:36.026Z,72.01
2023-03-17T07:00:40.147Z,72.44
2023-03-17T07:01:41.655Z,72.25
2023-03-17T07:02:43.269Z,71.20
2023-03-17T07:03:45.257Z,70.81
2023-03-17T07:04:46.997Z,71.14
2023-03-17T07:05:48.981Z,72.16
2023-03-17T07:06:51.609Z,71.13
2023-03-17T07:07:53.150Z,72.57
2023-03-17T07:08:54.875Z,72.40
2023-03-17T07:09:56.533Z,72.74
2023-03-17T07:10:59.027Z,73.27
2023-03-17T07:12:04.983Z,72.84
2023-03-17T07:13:08.438Z,71.75
2023-03-17T07:14:10.034Z,70.95
2023-03-17T07:15:12.613Z,72.26
2023-03-17T07:16:15.195Z,72.03
2023-03-17T07:17:16.955Z,70.72
2023-03-17T07:18:19.132Z,71.85
2023-03-17T07:19:20.722Z,70.98
2023-03-17T07:20:22.267Z,71.78
2023-03-17T07:21:23.845Z,71.74
2023-03-17T07:22:25.392Z,74.29
2023-03-17T07:23:27.096Z,71.77
2023-03-17T07:24:28.727Z,70.68
2023-03-17T07:25:30.806Z,71.14
2023-03-17T07:26:33.304Z,69.85
2023-03-17T07:27:35.010Z,70.02
2023-03-17T07:28:36.637Z,70.58
2023-03-17T07:29:39.053Z,69.38
2023-03-17T07:30:43.835Z,70.29
2023-03-17T07:31:45.708Z,69.82
2023-03-17T07:32:47.780Z,70.10
2023-03-17T07:33:49.336Z,69.53
2023-03-17T07:34:50.910Z,68.13
2023-03-17T07:35:54.169Z,68.28
2023-03-17T07:36:55.747Z,66.95
2023-03-17T07:37:57.352Z,67.73
2023-03-17T07:38:59.066Z,68.44
2023-03-17T07:40:01.506Z,68.79
2023-03-17T07:41:04.723Z,68.58
2023-03-17T07:42:07.007Z,68.64
2023-03-17T07:43:08.777Z,68.54
2023-03-17T07:44:11.486Z,68.93
2023-03-17T07:45:13.579Z,68.90
2023-03-17T07:46:15.145Z,69.80
2023-03-17T07:47:16.848Z,69.21
2023-03-17T07:48:18.962Z,69.35
2023-03-17T07:49:34.031Z,70.05
2023-03-17T07:50:42.541Z,69.13
2023-03-17T07:51:44.643Z,69.09
2023-03-17T07:52:46.429Z,69.44
2023-03-17T07:53:50.179Z,70.46
2023-03-17T07:54:52.191Z,69.38
2023-03-17T07:55:54.383Z,68.84
2023-03-17T07:56:56.336Z,69.57
2023-03-17T07:57:58.085Z,68.60
2023-03-17T07:59:00.033Z,68.71
2023-03-17T08:00:01.660Z,68.02
2023-03-17T08:01:05.086Z,68.08
2023-03-17T08:02:06.760Z,68.46
2023-03-17T08:03:10.706Z,65.53
2023-03-17T08:04:13.322Z,67.03
2023-03-17T08:05:14.950Z,66.50
2023-03-17T08:06:16.661Z,65.30
2023-03-17T08:07:18.452Z,65.27
2023-03-17T08:08:22.473Z,65.37
2023-03-17T08:09:24.560Z,63.99
2023-03-17T08:10:26.376Z,63.13
2023-03-17T08:11:29.469Z,62.94
2023-03-17T08:12:31.873Z,63.03
2023-03-17T08:13:34.168Z,62.41
2023-03-17T08:14:36.009Z,63.47
2023-03-17T08:15:38.392Z,62.18
2023-03-17T08:16:40.132Z,61.14
2023-03-17T08:17:41.996Z,61.58
2023-03-17T08:18:43.705Z,60.00
2023-03-17T08:19:45.346Z,61.00
2023-03-17T08:20:46.902Z,61.60
2023-03-17T08:21:48.516Z,62.57
2023-03-17T08:22:50.106Z,63.25
2023-03-17T08:23:51.694Z,63.45
2023-03-17T08:24:53.791Z,64.02
2023-03-17T08:25:59.199Z,64.23
2023-03-17T08:27:01.159Z,64.93
2023-03-17T08:28:04.542Z,65.45
2023-03-17T08:29:06.316Z,64.72
2023-03-17T08:30:08.505Z,64.31
2023-03-17T08:31:21.109Z,63.92
2023-03-17T08:32:23.016Z,63.50
2023-03-17T08:33:24.521Z,63.16
2023-03-17T08:34:26.408Z,64.63
2023-03-17T08:35:28.109Z,63.34
2023-03-17T08:36:29.928Z,63.97
2023-03-17T08:37:31.604Z,62.71
2023-03-17T08:38:33.671Z,63.41
2023-03-17T08:39:35.328Z,63.57
2023-03-17T08:40:40.107Z,61.61
2023-03-17T08:41:42.161Z,61.14
2023-03-17T08:42:45.305Z,60.53
2023-03-17T08:43:47.240Z,60.84
2023-03-17T08:44:48.947Z,60.36
2023-03-17T08:45:50.469Z,61.26
2023-03-17T08:46:57.698Z,60.90
2023-03-17T08:48:00.392Z,62.40
2023-03-17T08:49:03.297Z,62.05
2023-03-17T08:50:07.641Z,61.98
2023-03-17T08:51:09.646Z,59.57
2023-03-17T08:52:11.291Z,58.75
2023-03-17T08:53:14.268Z,60.07
2023-03-17T08:54:16.016Z,61.08
2023-03-17T08:55:19.476Z,60.16
2023-03-17T08:56:21.770Z,61.66
2023-03-17T08:57:23.516Z,58.97
2023-03-17T08:58:25.174Z,58.87
2023-03-17T08:59:27.045Z,58.62
2023-03-17T09:00:28.656Z,58.95
2023-03-17T09:01:31.484Z,59.49
2023-03-17T09:02:33.050Z,58.92
2023-03-17T09:03:34.764Z,58.90
2023-03-17T09:04:39.907Z,58.90
2023-03-17T09:05:42.751Z,59.52
2023-03-17T09:07:01.846Z,59.47
2023-03-17T09:08:04.779Z,58.61
2023-03-17T09:09:06.924Z,58.12
2023-03-17T09:10:10.930Z,58.58
2023-03-17T09:11:17.750Z,58.60
2023-03-17T09:12:19.302Z,58.85
2023-03-17T09:13:21.962Z,57.90
2023-03-17T09:14:24.969Z,57.79
2023-03-17T09:15:26.669Z,57.91
2023-03-17T09:16:28.765Z,56.42
2023-03-17T09:17:30.424Z,56.37
2023-03-17T09:18:33.184Z,58.16
2023-03-17T09:19:34.812Z,57.83
2023-03-17T09:20:36.382Z,59.19
2023-03-17T09:21:38.032Z,57.74
2023-03-17T09:22:39.605Z,57.83
2023-03-17T09:23:41.628Z,57.96
2023-03-17T09:24:43.373Z,58.20
2023-03-17T09:25:44.995Z,58.49
2023-03-17T09:26:46.944Z,57.84
2023-03-17T09:27:48.584Z,57.71
2023-03-17T09:28:50.172Z,57.58
2023-03-17T09:29:51.891Z,57.02
2023-03-17T09:30:58.543Z,58.48
2023-03-17T09:32:00.754Z,58.18
2023-03-17T09:33:02.401Z,57.71
2023-03-17T09:34:05.455Z,55.89
2023-03-17T09:35:07.168Z,57.06
2023-03-17T09:36:10.421Z,56.60
2023-03-17T09:37:12.101Z,54.77
2023-03-17T09:38:13.732Z,56.44
2023-03-17T09:39:16.072Z,55.14
2023-03-17T09:40:21.165Z,55.00
2023-03-17T09:41:57.183Z,54.98
2023-03-17T09:43:37.124Z,55.46
2023-03-17T09:45:12.307Z,55.07
2023-03-17T09:46:28.177Z,55.66
2023-03-17T09:47:53.689Z,54.80
2023-03-17T09:49:09.330Z,54.93
2023-03-17T09:50:16.575Z,55.12
2023-03-17T09:51:19.593Z,55.24
2023-03-17T09:52:30.573Z,54.58
2023-03-17T09:53:48.037Z,54.34
2023-03-17T09:54:50.136Z,54.06
2023-03-17T09:55:55.544Z,53.63
2023-03-17T09:57:06.064Z,53.08
2023-03-17T09:58:11.526Z,53.64
2023-03-17T09:59:37.008Z,52.29
2023-03-17T10:00:39.474Z,53.84
2023-03-17T10:01:43.418Z,53.52
2023-03-17T10:02:46.221Z,53.02
2023-03-17T10:03:47.997Z,53.17
2023-03-17T10:04:49.941Z,52.36
2023-03-17T10:05:52.010Z,52.19
2023-03-17T10:07:02.273Z,52.72
2023-03-17T10:08:31.774Z,52.81
2023-03-17T10:09:51.672Z,51.56
2023-03-17T10:10:53.665Z,51.38
2023-03-17T10:12:04.315Z,51.46
2023-03-17T10:13:15.455Z,53.51
2023-03-17T10:14:27.216Z,52.60
2023-03-17T10:15:54.185Z,51.19
2023-03-17T10:17:21.257Z,50.56
2023-03-17T10:18:26.552Z,50.33
2023-03-17T10:19:47.153Z,51.17
2023-03-17T10:21:03.520Z,50.15
2023-03-17T10:22:27.122Z,50.16
2023-03-17T10:23:35.717Z,49.72
2023-03-17T10:24:43.651Z,49.35
2023-03-17T10:25:45.301Z,50.32
2023-03-17T10:26:50.301Z,49.33
2023-03-17T10:28:02.557Z,49.37
2023-03-17T10:29:12.554Z,48.63
2023-03-17T10:30:17.524Z,49.85
2023-03-17T10:31:28.632Z,50.69
2023-03-17T10:32:33.164Z,49.45
2023-03-17T10:33:34.718Z,49.02
2023-03-17T10:34:38.213Z,49.63
2023-03-17T10:35:40.585Z,49.75
2023-03-17T10:36:51.483Z,50.01
2023-03-17T10:38:04.417Z,48.12
2023-03-17T10:39:18.793Z,49.17
2023-03-17T10:40:24.498Z,47.80
2023-03-17T10:41:38.687Z,47.88
2023-03-17T10:42:53.364Z,47.34
2023-03-17T10:43:55.021Z,46.92
2023-03-17T10:44:58.730Z,46.47
2023-03-17T10:46:05.835Z,46.14
2023-03-17T10:47:20.259Z,47.03
2023-03-17T10:48:21.848Z,46.01
2023-03-17T10:49:24.500Z,45.60
2023-03-17T10:50:30.150Z,46.55
2023-03-17T10:51:35.481Z,46.08
2023-03-17T10:52:40.880Z,45.89
2023-03-17T10:53:45.324Z,45.45
2023-03-17T10:54:53.334Z,44.82
2023-03-17T10:56:01.059Z,45.21
2023-03-17T10:57:07.139Z,44.85
2023-03-17T10:58:22.568Z,45.25
2023-03-17T10:59:33.139Z,45.55
2023-03-17T11:00:38.501Z,45.65
2023-03-17T11:01:44.015Z,45.33
2023-03-17T11:02:57.259Z,44.77
2023-03-17T11:04:02.467Z,44.72
2023-03-17T11:05:09.599Z,44.41
2023-03-17T11:06:14.421Z,45.18
2023-03-17T11:07:21.748Z,44.91
2023-03-17T11:08:24.079Z,45.63
2023-03-17T11:09:29.246Z,47.58
2023-03-17T11:10:37.044Z,45.76
2023-03-17T11:11:47.282Z,46.98
2023-03-17T11:12:54.814Z,45.25
2023-03-17T11:14:04.842Z,45.29
2023-03-17T11:15:20.070Z,44.81
2023-03-17T11:16:24.083Z,45.33
2023-03-17T11:17:45.560Z,44.91
2023-03-17T11:18:49.163Z,46.85
2023-03-17T11:20:32.959Z,45.20
2023-03-17T11:21:49.581Z,46.13
2023-03-17T11:23:08.743Z,47.24
2023-03-17T11:24:20.268Z,44.17
2023-03-17T11:25:23.518Z,44.97
2023-03-17T11:26:52.246Z,46.63
2023-03-17T11:28:02.472Z,45.73
2023-03-17T11:29:20.744Z,45.33
2023-03-17T11:30:32.398Z,46.29
2023-03-17T11:32:00.804Z,43.59
2023-03-17T11:33:21.841Z,44.63
2023-03-17T11:34:23.471Z,46.46
2023-03-17T11:35:38.366Z,44.45
2023-03-17T11:36:51.546Z,44.05
2023-03-17T11:38:20.594Z,43.65
2023-03-17T11:39:32.292Z,43.76
2023-03-17T11:40:47.637Z,43.44
2023-03-17T11:42:06.962Z,43.59
2023-03-17T11:43:34.621Z,43.36
2023-03-17T11:44:39.044Z,43.61
2023-03-17T11:45:52.528Z,44.50
2023-03-17T11:47:15.797Z,44.04
2023-03-17T11:48:45.855Z,44.88
2023-03-17T11:50:13.853Z,45.15
2023-03-17T11:51:18.242Z,45.24
2023-03-17T11:52:32.653Z,44.35
2023-03-17T11:53:56.968Z,44.94
2023-03-17T11:54:59.690Z,44.53
2023-03-17T11:56:06.930Z,44.08
2023-03-17T11:57:17.271Z,43.30
2023-03-17T11:58:41.293Z,43.28
2023-03-17T11:59:59.550Z,43.65
2023-03-17T12:01:09.143Z,42.88
2023-03-17T12:02:40.847Z,44.12
2023-03-17T12:03:55.312Z,44.38
2023-03-17T12:05:02.462Z,44.75
2023-03-17T12:06:11.245Z,44.23
2023-03-17T12:07:27.003Z,44.07
2023-03-17T12:08:45.973Z,43.55
2023-03-17T12:10:15.618Z,43.51
2023-03-17T12:11:24.237Z,44.07
2023-03-17T12:12:38.140Z,42.96
2023-03-17T12:13:48.165Z,43.06
2023-03-17T12:14:52.378Z,43.82
2023-03-17T12:16:04.461Z,42.78
2023-03-17T12:17:34.941Z,42.65
2023-03-17T12:18:40.065Z,42.06
2023-03-17T12:20:16.561Z,42.25
2023-03-17T12:21:36.917Z,42.91
2023-03-17T12:22:47.094Z,42.64
2023-03-17T12:24:01.919Z,40.89
2023-03-17T12:25:13.042Z,42.02
2023-03-17T12:26:19.110Z,41.91
2023-03-17T12:27:23.644Z,42.15
2023-03-17T12:28:38.824Z,42.28
2023-03-17T12:29:50.137Z,43.00
2023-03-17T12:31:12.950Z,42.46
2023-03-17T12:32:49.938Z,42.38
2023-03-17T12:34:06.514Z,42.39
2023-03-17T12:35:32.575Z,43.03
2023-03-17T12:36:39.957Z,43.31
2023-03-17T12:37:41.989Z,42.99
2023-03-17T12:38:49.520Z,43.94
2023-03-17T12:40:06.768Z,43.13
2023-03-17T12:41:20.367Z,43.95
2023-03-17T12:42:53.736Z,43.67
2023-03-17T12:44:11.510Z,43.46
2023-03-17T12:45:22.405Z,43.98
2023-03-17T12:46:33.849Z,42.36
2023-03-17T12:47:50.854Z,42.88
2023-03-17T12:49:19.026Z,42.43
2023-03-17T12:50:49.341Z,42.40
2023-03-17T12:52:09.162Z,42.59
2023-03-17T12:53:29.897Z,42.62
2023-03-17T12:54:34.776Z,42.48
2023-03-17T12:55:37.008Z,42.49
2023-03-17T12:56:45.283Z,42.58
2023-03-17T12:57:57.718Z,42.55
2023-03-17T12:59:06.653Z,42.74
2023-03-17T13:00:20.404Z,42.90
2023-03-17T13:01:33.236Z,43.17
2023-03-17T13:02:39.271Z,43.47
2023-03-17T13:04:16.880Z,43.76
2023-03-17T13:05:30.980Z,43.92
2023-03-17T13:06:53.574Z,43.71
2023-03-17T13:07:59.508Z,43.39
2023-03-17T13:09:30.256Z,43.53
2023-03-17T13:10:43.365Z,43.42
2023-03-17T13:11:47.950Z,43.83
2023-03-17T13:12:49.456Z,43.99
2023-03-17T13:14:15.447Z,42.81
2023-03-17T13:15:22.835Z,42.77
2023-03-17T13:17:27.602Z,43.66
2023-03-17T13:18:34.924Z,43.15
2023-03-17T13:19:54.747Z,43.33
2023-03-17T13:20:56.561Z,42.89
2023-03-17T13:22:20.593Z,43.94
2023-03-17T13:23:35.980Z,43.68
2023-03-17T13:24:47.716Z,43.34
2023-03-17T13:25:53.799Z,43.65
2023-03-17T13:27:01.836Z,44.22
2023-03-17T13:28:12.356Z,42.79
2023-03-17T13:29:37.214Z,42.41
2023-03-17T13:30:38.889Z,43.01
2023-03-17T13:31:40.540Z,43.00
2023-03-17T13:32:42.809Z,42.48
2023-03-17T13:33:54.053Z,42.82
2023-03-17T13:35:19.000Z,42.76
2023-03-17T13:36:20.729Z,43.01
2023-03-17T13:37:42.536Z,42.93
2023-03-17T13:38:46.781Z,42.41
2023-03-17T13:40:13.633Z,43.18
2023-03-17T13:41:43.753Z,43.25
2023-03-17T13:43:29.282Z,42.72
2023-03-17T13:45:06.296Z,43.16
2023-03-17T13:46:33.965Z,43.45
2023-03-17T13:47:42.086Z,42.10
2023-03-17T13:48:44.003Z,42.08
2023-03-17T13:49:51.634Z,40.03
2023-03-17T13:51:02.312Z,40.71
2023-03-17T13:52:14.090Z,40.93
2023-03-17T13:53:15.906Z,41.37
2023-03-17T13:54:26.628Z,41.02
2023-03-17T13:55:38.675Z,40.71
2023-03-17T13:56:40.476Z,40.27
2023-03-17T13:57:42.031Z,39.92
2023-03-17T13:59:02.300Z,40.11
2023-03-17T14:00:21.897Z,40.87
2023-03-17T14:01:24.857Z,40.91
2023-03-17T14:02:31.850Z,40.84
2023-03-17T14:03:47.453Z,40.36
2023-03-17T14:04:54.559Z,40.98